Terminal Aerodrome Forecast
Issued by NWS Bismarck, ND

Home | Current Version | Previous Version | Graphics & Text | Print | Product List | Glossary On
Versions: 1 2 3 4 5 6 7 8 9 10 11 12 13 14 15 16 17 18 19 20 21 22 23 24 25
000
FTUS43 KBIS 221458 AAB
TAFBIS
TAF AMD
KBIS 221458Z 2215/2312 10007KT P6SM VCTS SCT025 SCT070CB
      TEMPO 2215/2218 -TSRA BKN025 BKN070CB
     FM221800 10009KT P6SM SCT130
     FM222000 11008KT P6SM VCTS SCT130CB
     FM230000 11015G22KT P6SM SHRA VCTS BKN090CB=

USA.gov is the U.S. government's official web portal to all federal, state and local government web resources and services.